地図

経路データ

SID SEASON NUMBER BASIN SUBBASIN NAME ISO_TIME NATURE LAT LON WMO_WIND WMO_PRES WMO_AGENCY TRACK_TYPE DIST2LAND LANDFALL IFLAG USA_AGENCY USA_ATCF_ID USA_LAT USA_LON USA_RECORD USA_STATUS USA_WIND USA_PRES USA_SSHS USA_R34_NE USA_R34_SE USA_R34_SW USA_R34_NW USA_R50_NE USA_R50_SE USA_R50_SW USA_R50_NW USA_R64_NE USA_R64_SE USA_R64_SW USA_R64_NW USA_POCI USA_ROCI USA_RMW USA_EYE TOKYO_LAT TOKYO_LON TOKYO_GRADE TOKYO_WIND TOKYO_PRES TOKYO_R50_DIR TOKYO_R50_LONG TOKYO_R50_SHORT TOKYO_R30_DIR TOKYO_R30_LONG TOKYO_R30_SHORT TOKYO_LAND CMA_LAT CMA_LON CMA_CAT CMA_WIND CMA_PRES HKO_LAT HKO_LON HKO_CAT HKO_WIND HKO_PRES NEWDELHI_LAT NEWDELHI_LON NEWDELHI_GRADE NEWDELHI_WIND NEWDELHI_PRES NEWDELHI_CI NEWDELHI_DP NEWDELHI_POCI REUNION_LAT REUNION_LON REUNION_TYPE REUNION_WIND REUNION_PRES REUNION_TNUM REUNION_CI REUNION_RMW REUNION_R34_NE REUNION_R34_SE REUNION_R34_SW REUNION_R34_NW REUNION_R50_NE REUNION_R50_SE REUNION_R50_SW REUNION_R50_NW REUNION_R64_NE REUNION_R64_SE REUNION_R64_SW REUNION_R64_NW BOM_LAT BOM_LON BOM_TYPE BOM_WIND BOM_PRES BOM_TNUM BOM_CI BOM_RMW BOM_R34_NE BOM_R34_SE BOM_R34_SW BOM_R34_NW BOM_R50_NE BOM_R50_SE BOM_R50_SW BOM_R50_NW BOM_R64_NE BOM_R64_SE BOM_R64_SW BOM_R64_NW BOM_ROCI BOM_POCI BOM_EYE BOM_POS_METHOD BOM_PRES_METHOD NADI_LAT NADI_LON NADI_CAT NADI_WIND NADI_PRES WELLINGTON_LAT WELLINGTON_LON WELLINGTON_WIND WELLINGTON_PRES DS824_LAT DS824_LON DS824_STAGE DS824_WIND DS824_PRES TD9636_LAT TD9636_LON TD9636_STAGE TD9636_WIND TD9636_PRES TD9635_LAT TD9635_LON TD9635_WIND TD9635_PRES TD9635_ROCI NEUMANN_LAT NEUMANN_LON NEUMANN_CLASS NEUMANN_WIND NEUMANN_PRES MLC_LAT MLC_LON MLC_CLASS MLC_WIND MLC_PRES USA_GUST BOM_GUST BOM_GUST_PER REUNION_GUST REUNION_GUST_PER USA_SEAHGT USA_SEARAD_NE USA_SEARAD_SE USA_SEARAD_SW USA_SEARAD_NW STORM_SPEED STORM_DIR
1924001S12062 1924 1 SI MM NOT_NAMED 1924-01-01 06:00:00 NR -12.1000 62.0000 reunion main 1006 1006 _____O________ -1 -12.1000 62.0000 99 9.90000 1 203
1924001S12062 1924 1 SI MM NOT_NAMED 1924-01-01 09:00:00 NR -12.1363 61.9767 main 1006 996 _____P________ -1 -12.1363 61.9767 99 1 218
1924001S12062 1924 1 SI MM NOT_NAMED 1924-01-01 12:00:00 NR -12.1763 61.9496 main 991 991 _____P________ -1 -12.1763 61.9496 99 1 213
1924001S12062 1924 1 SI MM NOT_NAMED 1924-01-01 15:00:00 NR -12.2237 61.9152 main 991 981 _____P________ -1 -12.2237 61.9152 99 1 216
1924001S12062 1924 1 SI MM NOT_NAMED 1924-01-01 18:00:00 NR -12.2821 61.8695 main 981 966 _____P________ -1 -12.2821 61.8695 99 2 218
1924001S12062 1924 1 SI MM NOT_NAMED 1924-01-01 21:00:00 NR -12.3553 61.8089 main 966 961 _____P________ -1 -12.3553 61.8089 99 2 219
1924001S12062 1924 1 SI MM NOT_NAMED 1924-01-02 00:00:00 NR -12.4469 61.7296 main 961 936 _____P________ -1 -12.4469 61.7296 99 3 221
1924001S12062 1924 1 SI MM NOT_NAMED 1924-01-02 03:00:00 NR -12.5606 61.6279 main 936 921 _____P________ -1 -12.5606 61.6279 99 3 222
1924001S12062 1924 1 SI MM NOT_NAMED 1924-01-02 06:00:00 NR -12.7000 61.5000 reunion main 921 897 _____O________ -1 -12.7000 61.5000 99 9.90000 4 222
1924001S12062 1924 1 SI MM NOT_NAMED 1924-01-02 09:00:00 NR -12.8677 61.3434 main 892 867 _____P________ -1 -12.8677 61.3434 99 5 223
1924001S12062 1924 1 SI MM NOT_NAMED 1924-01-02 12:00:00 NR -13.0616 61.1615 main 867 838 _____P________ -1 -13.0616 61.1615 99 6 222
1924001S12062 1924 1 SI MM NOT_NAMED 1924-01-02 15:00:00 NR -13.2786 60.9588 main 838 808 _____P________ -1 -13.2786 60.9588 99 6 222
1924001S12062 1924 1 SI MM NOT_NAMED 1924-01-02 18:00:00 NR -13.5155 60.7402 main 804 765 _____P________ -1 -13.5155 60.7402 99 7 222
1924001S12062 1924 1 SI MM NOT_NAMED 1924-01-02 21:00:00 NR -13.7692 60.5102 main 765 736 _____P________ -1 -13.7692 60.5102 99 7 221
1924001S12062 1924 1 SI MM NOT_NAMED 1924-01-03 00:00:00 NR -14.0366 60.2737 main 736 693 _____P________ -1 -14.0366 60.2737 99 7 220
1924001S12062 1924 1 SI MM NOT_NAMED 1924-01-03 03:00:00 NR -14.3146 60.0354 main 693 654 _____P________ -1 -14.3146 60.0354 99 7 219
1924001S12062 1924 1 SI MM NOT_NAMED 1924-01-03 06:00:00 NR -14.6000 59.8000 reunion main 654 615 _____O________ -1 -14.6000 59.8000 99 9.90000 7 218
1924001S12062 1924 1 SI MM NOT_NAMED 1924-01-03 09:00:00 NR -14.8941 59.5613 main 615 573 _____P________ -1 -14.8941 59.5613 99 8 218
1924001S12062 1924 1 SI MM NOT_NAMED 1924-01-03 12:00:00 NR -15.2009 59.3194 main 573 535 _____P________ -1 -15.2009 59.3194 99 8 217
1924001S12062 1924 1 SI MM NOT_NAMED 1924-01-03 15:00:00 NR -15.5149 59.0795 main 535 497 _____P________ -1 -15.5149 59.0795 99 8 216
1924001S12062 1924 1 SI MM NOT_NAMED 1924-01-03 18:00:00 NR -15.8305 58.8469 main 494 457 _____P________ -1 -15.8305 58.8469 99 8 215
1924001S12062 1924 1 SI MM NOT_NAMED 1924-01-03 21:00:00 NR -16.1423 58.6272 main 457 420 _____P________ -1 -16.1423 58.6272 99 7 213
1924001S12062 1924 1 SI MM NOT_NAMED 1924-01-04 00:00:00 NR -16.4448 58.4258 main 420 385 _____P________ -1 -16.4448 58.4258 99 7 212
1924001S12062 1924 1 SI MM NOT_NAMED 1924-01-04 03:00:00 NR -16.7325 58.2482 main 384 349 _____P________ -1 -16.7325 58.2482 99 6 209
1924001S12062 1924 1 SI MM NOT_NAMED 1924-01-04 06:00:00 NR -17.0000 58.1000 reunion main 349 325 _____O________ -1 -17.0000 58.1000 99 9.90000 6 209
1924001S12062 1924 1 SI MM NOT_NAMED 1924-01-04 09:00:00 NR -17.2174 57.9608 main 325 302 _____P________ -1 -17.2174 57.9608 99 5 210
1924001S12062 1924 1 SI MM NOT_NAMED 1924-01-04 12:00:00 NR -17.4145 57.8470 main 302 279 _____P________ -1 -17.4145 57.8470 99 4 206
1924001S12062 1924 1 SI MM NOT_NAMED 1924-01-04 15:00:00 NR -17.5971 57.7604 main 279 257 _____P________ -1 -17.5971 57.7604 99 4 201
1924001S12062 1924 1 SI MM NOT_NAMED 1924-01-04 18:00:00 NR -17.7713 57.7029 main 257 246 _____P________ -1 -17.7713 57.7029 99 4 192
1924001S12062 1924 1 SI MM NOT_NAMED 1924-01-04 21:00:00 NR -17.9428 57.6763 main 246 223 _____P________ -1 -17.9428 57.6763 99 3 184
1924001S12062 1924 1 SI MM NOT_NAMED 1924-01-05 00:00:00 NR -18.1175 57.6823 main 223 201 _____P________ -1 -18.1175 57.6823 99 4 174
1924001S12062 1924 1 SI MM NOT_NAMED 1924-01-05 03:00:00 NR -18.3013 57.7230 main 201 179 _____P________ -1 -18.3013 57.7230 99 4 164
1924001S12062 1924 1 SI MM NOT_NAMED 1924-01-05 06:00:00 NR -18.5000 57.8000 reunion main 179 156 _____O________ -1 -18.5000 57.8000 99 9.90000 5 164
1924001S12062 1924 1 SI MM NOT_NAMED 1924-01-05 09:00:00 NR -18.7353 57.8533 main 158 124 _____P________ -1 -18.7353 57.8533 99 5 165
1924001S12062 1924 1 SI MM NOT_NAMED 1924-01-05 12:00:00 NR -18.9834 57.9395 main 124 105 _____P________ -1 -18.9834 57.9395 99 5 159
1924001S12062 1924 1 SI MM NOT_NAMED 1924-01-05 15:00:00 NR -19.2418 58.0632 main 109 85 _____P________ -1 -19.2418 58.0632 99 6 152
1924001S12062 1924 1 SI MM NOT_NAMED 1924-01-05 18:00:00 NR -19.5080 58.2287 main 85 77 _____P________ -1 -19.5080 58.2287 99 6 146
1924001S12062 1924 1 SI MM NOT_NAMED 1924-01-05 21:00:00 NR -19.7795 58.4406 main 80 80 _____P________ -1 -19.7795 58.4406 99 7 141
1924001S12062 1924 1 SI MM NOT_NAMED 1924-01-06 00:00:00 NR -20.0538 58.7033 main 96 96 _____P________ -1 -20.0538 58.7033 99 8 135
1924001S12062 1924 1 SI MM NOT_NAMED 1924-01-06 03:00:00 NR -20.3282 59.0216 main 125 125 _____P________ -1 -20.3282 59.0216 99 9 130
1924001S12062 1924 1 SI MM NOT_NAMED 1924-01-06 06:00:00 NR -20.6000 59.4000 reunion main 170 170 _____O________ -1 -20.6000 59.4000 99 9.90000 10 124
1924001S12062 1924 1 SI MM NOT_NAMED 1924-01-06 09:00:00 NR -20.8917 59.9120 main 228 228 _____P________ -1 -20.8917 59.9120 99 12 120
1924001S12062 1924 1 SI MM NOT_NAMED 1924-01-06 12:00:00 NR -21.1850 60.4988 main 298 298 _____P________ -1 -21.1850 60.4988 99 13 117
1924001S12062 1924 1 SI MM NOT_NAMED 1924-01-06 15:00:00 NR -21.4728 61.1343 main 368 368 _____P________ -1 -21.4728 61.1343 99 13 115
1924001S12062 1924 1 SI MM NOT_NAMED 1924-01-06 18:00:00 NR -21.7481 61.7920 main 443 443 _____P________ -1 -21.7481 61.7920 99 13 114
1924001S12062 1924 1 SI MM NOT_NAMED 1924-01-06 21:00:00 NR -22.0043 62.4448 main 513 513 _____P________ -1 -22.0043 62.4448 99 13 112
1924001S12062 1924 1 SI MM NOT_NAMED 1924-01-07 00:00:00 NR -22.2354 63.0654 main 588 588 _____P________ -1 -22.2354 63.0654 99 12 112
1924001S12062 1924 1 SI MM NOT_NAMED 1924-01-07 03:00:00 NR -22.4358 63.6264 main 644 644 _____P________ -1 -22.4358 63.6264 99 10 111
1924001S12062 1924 1 SI MM NOT_NAMED 1924-01-07 06:00:00 NR -22.6000 64.1000 reunion main 700 700 _____O________ -1 -22.6000 64.1000 99 9.90000 8 110
1924001S12062 1924 1 SI MM NOT_NAMED 1924-01-07 09:00:00 NR -22.7249 64.4656 main 743 743 _____P________ -1 -22.7249 64.4656 99 6 110
1924001S12062 1924 1 SI MM NOT_NAMED 1924-01-07 12:00:00 NR -22.8144 64.7302 main 766 766 _____P________ -1 -22.8144 64.7302 99 4 110
1924001S12062 1924 1 SI MM NOT_NAMED 1924-01-07 15:00:00 NR -22.8738 64.9080 main 789 789 _____P________ -1 -22.8738 64.9080 99 3 110
1924001S12062 1924 1 SI MM NOT_NAMED 1924-01-07 18:00:00 NR -22.9086 65.0134 main 798 798 _____P________ -1 -22.9086 65.0134 99 1 109
1924001S12062 1924 1 SI MM NOT_NAMED 1924-01-07 21:00:00 NR -22.9236 65.0609 main 808 808 _____P________ -1 -22.9236 65.0609 99 0 113
1924001S12062 1924 1 SI MM NOT_NAMED 1924-01-08 00:00:00 NR -22.9239 65.0648 main 808 798 _____P________ -1 -22.9239 65.0648 99 0 0
1924001S12062 1924 1 SI MM NOT_NAMED 1924-01-08 03:00:00 NR -22.9144 65.0396 main 798 798 _____P________ -1 -22.9144 65.0396 99 1 295
1924001S12062 1924 1 SI MM NOT_NAMED 1924-01-08 06:00:00 NR -22.9000 65.0000 reunion main 798 _____O________ -1 -22.9000 65.0000 99 9.90000 1 291

IBTrACS Databaseについて

本データベースは、米国NOAAが公開する1842年以降の世界の熱帯低気圧のベストトラックデータアーカイブInternational Best Track Archive for Climate Stewardship (IBTrACS)を、ウェブで閲覧しやすい形式に変換したものです。

最終更新日:2021-10-08